sensor_id;sensor_type;location;lat;lon;timestamp;P1;durP1;ratioP1;P2;durP2;ratioP2
325;SDS011;150;52.352;14.058;2022-09-30T00:01:23;5.25;;;4.18;;
325;SDS011;150;52.352;14.058;2022-09-30T00:03:50;6.05;;;4.43;;
325;SDS011;150;52.352;14.058;2022-09-30T00:06:19;5.13;;;4.47;;
325;SDS011;150;52.352;14.058;2022-09-30T00:08:46;4.68;;;3.70;;
325;SDS011;150;52.352;14.058;2022-09-30T00:11:14;6.93;;;6.22;;
325;SDS011;150;52.352;14.058;2022-09-30T00:13:42;7.93;;;5.70;;
325;SDS011;150;52.352;14.058;2022-09-30T00:16:10;8.38;;;5.82;;
325;SDS011;150;52.352;14.058;2022-09-30T00:18:39;9.45;;;6.88;;
325;SDS011;150;52.352;14.058;2022-09-30T00:21:07;19.48;;;15.35;;
325;SDS011;150;52.352;14.058;2022-09-30T00:23:36;8.82;;;7.75;;
325;SDS011;150;52.352;14.058;2022-09-30T00:26:04;24.50;;;18.27;;
325;SDS011;150;52.352;14.058;2022-09-30T00:28:34;10.82;;;9.25;;
325;SDS011;150;52.352;14.058;2022-09-30T00:31:01;13.32;;;10.48;;
325;SDS011;150;52.352;14.058;2022-09-30T00:33:29;9.83;;;7.20;;
325;SDS011;150;52.352;14.058;2022-09-30T00:35:56;6.87;;;5.23;;
325;SDS011;150;52.352;14.058;2022-09-30T00:38:22;7.45;;;5.40;;
325;SDS011;150;52.352;14.058;2022-09-30T00:40:50;6.88;;;4.55;;
325;SDS011;150;52.352;14.058;2022-09-30T00:43:18;5.90;;;4.70;;
325;SDS011;150;52.352;14.058;2022-09-30T00:46:05;7.00;;;5.23;;
325;SDS011;150;52.352;14.058;2022-09-30T00:48:41;23.05;;;17.08;;
325;SDS011;150;52.352;14.058;2022-09-30T00:51:08;10.83;;;8.80;;
325;SDS011;150;52.352;14.058;2022-09-30T00:53:38;7.97;;;5.70;;
325;SDS011;150;52.352;14.058;2022-09-30T00:56:13;6.63;;;4.90;;
325;SDS011;150;52.352;14.058;2022-09-30T00:58:44;5.60;;;4.32;;
325;SDS011;150;52.352;14.058;2022-09-30T01:01:14;6.93;;;4.78;;
325;SDS011;150;52.352;14.058;2022-09-30T01:03:42;6.40;;;4.63;;
325;SDS011;150;52.352;14.058;2022-09-30T01:06:14;4.63;;;3.92;;
325;SDS011;150;52.352;14.058;2022-09-30T01:08:40;5.93;;;4.20;;
325;SDS011;150;52.352;14.058;2022-09-30T01:11:08;5.35;;;3.85;;
325;SDS011;150;52.352;14.058;2022-09-30T01:13:36;4.50;;;3.65;;
325;SDS011;150;52.352;14.058;2022-09-30T01:16:11;5.75;;;3.90;;
325;SDS011;150;52.352;14.058;2022-09-30T01:18:53;5.00;;;3.93;;
325;SDS011;150;52.352;14.058;2022-09-30T01:24:39;5.30;;;3.95;;
325;SDS011;150;52.352;14.058;2022-09-30T01:27:29;4.47;;;3.60;;
325;SDS011;150;52.352;14.058;2022-09-30T01:30:15;4.30;;;4.00;;
325;SDS011;150;52.352;14.058;2022-09-30T01:33:09;5.03;;;3.53;;
325;SDS011;150;52.352;14.058;2022-09-30T01:35:52;5.47;;;4.10;;
325;SDS011;150;52.352;14.058;2022-09-30T01:38:32;5.10;;;3.80;;
325;SDS011;150;52.352;14.058;2022-09-30T01:41:09;4.10;;;3.70;;
325;SDS011;150;52.352;14.058;2022-09-30T01:43:41;5.00;;;3.90;;
325;SDS011;150;52.352;14.058;2022-09-30T01:46:17;5.45;;;3.83;;
325;SDS011;150;52.352;14.058;2022-09-30T01:48:52;8.38;;;5.68;;
325;SDS011;150;52.352;14.058;2022-09-30T01:51:25;5.07;;;4.43;;
325;SDS011;150;52.352;14.058;2022-09-30T01:53:59;6.15;;;4.20;;
325;SDS011;150;52.352;14.058;2022-09-30T01:56:31;7.45;;;4.65;;
325;SDS011;150;52.352;14.058;2022-09-30T01:59:03;5.45;;;4.38;;
325;SDS011;150;52.352;14.058;2022-09-30T02:01:34;6.18;;;3.90;;
325;SDS011;150;52.352;14.058;2022-09-30T02:04:06;4.45;;;3.30;;
325;SDS011;150;52.352;14.058;2022-09-30T02:06:39;4.37;;;3.60;;
325;SDS011;150;52.352;14.058;2022-09-30T02:09:10;5.40;;;3.83;;
325;SDS011;150;52.352;14.058;2022-09-30T02:11:39;4.88;;;3.83;;
325;SDS011;150;52.352;14.058;2022-09-30T02:14:08;6.07;;;3.92;;
325;SDS011;150;52.352;14.058;2022-09-30T02:16:41;5.00;;;3.50;;
325;SDS011;150;52.352;14.058;2022-09-30T02:19:14;5.57;;;3.58;;
325;SDS011;150;52.352;14.058;2022-09-30T02:21:45;6.07;;;4.00;;
325;SDS011;150;52.352;14.058;2022-09-30T02:24:16;6.28;;;4.78;;
325;SDS011;150;52.352;14.058;2022-09-30T02:26:49;6.38;;;4.47;;
325;SDS011;150;52.352;14.058;2022-09-30T02:29:20;7.70;;;4.30;;
325;SDS011;150;52.352;14.058;2022-09-30T02:31:52;7.03;;;5.15;;
325;SDS011;150;52.352;14.058;2022-09-30T02:34:25;5.72;;;4.35;;
325;SDS011;150;52.352;14.058;2022-09-30T02:36:57;4.15;;;3.80;;
325;SDS011;150;52.352;14.058;2022-09-30T02:39:28;5.03;;;3.55;;
325;SDS011;150;52.352;14.058;2022-09-30T02:42:03;5.55;;;4.03;;
325;SDS011;150;52.352;14.058;2022-09-30T02:44:36;4.70;;;3.70;;
325;SDS011;150;52.352;14.058;2022-09-30T02:47:07;6.13;;;4.18;;
325;SDS011;150;52.352;14.058;2022-09-30T02:49:41;5.63;;;4.22;;
325;SDS011;150;52.352;14.058;2022-09-30T02:52:14;9.27;;;4.63;;
325;SDS011;150;52.352;14.058;2022-09-30T02:54:49;4.60;;;4.07;;
325;SDS011;150;52.352;14.058;2022-09-30T02:57:33;5.05;;;4.35;;
325;SDS011;150;52.352;14.058;2022-09-30T03:00:04;11.18;;;6.95;;
325;SDS011;150;52.352;14.058;2022-09-30T03:02:32;6.93;;;6.53;;
325;SDS011;150;52.352;14.058;2022-09-30T03:05:00;7.38;;;6.38;;
325;SDS011;150;52.352;14.058;2022-09-30T03:07:27;7.65;;;5.40;;
325;SDS011;150;52.352;14.058;2022-09-30T03:09:54;5.38;;;4.57;;
325;SDS011;150;52.352;14.058;2022-09-30T03:12:24;5.13;;;4.30;;
325;SDS011;150;52.352;14.058;2022-09-30T03:18:12;59.05;;;36.58;;
325;SDS011;150;52.352;14.058;2022-09-30T03:21:03;53.55;;;34.15;;
325;SDS011;150;52.352;14.058;2022-09-30T03:26:41;13.95;;;9.02;;
325;SDS011;150;52.352;14.058;2022-09-30T03:29:18;9.13;;;6.47;;
325;SDS011;150;52.352;14.058;2022-09-30T03:31:53;5.85;;;4.57;;
325;SDS011;150;52.352;14.058;2022-09-30T03:34:27;5.60;;;4.60;;
325;SDS011;150;52.352;14.058;2022-09-30T03:36:59;15.18;;;8.85;;
325;SDS011;150;52.352;14.058;2022-09-30T03:39:36;11.10;;;8.95;;
325;SDS011;150;52.352;14.058;2022-09-30T03:42:13;6.10;;;5.10;;
325;SDS011;150;52.352;14.058;2022-09-30T03:44:44;5.85;;;4.88;;
325;SDS011;150;52.352;14.058;2022-09-30T03:47:19;7.13;;;5.53;;
325;SDS011;150;52.352;14.058;2022-09-30T03:49:48;6.63;;;3.90;;
325;SDS011;150;52.352;14.058;2022-09-30T03:52:18;4.50;;;4.00;;
325;SDS011;150;52.352;14.058;2022-09-30T03:54:46;4.60;;;3.80;;
325;SDS011;150;52.352;14.058;2022-09-30T03:57:15;5.50;;;3.92;;
325;SDS011;150;52.352;14.058;2022-09-30T03:59:41;5.70;;;3.63;;
325;SDS011;150;52.352;14.058;2022-09-30T04:02:08;4.03;;;3.42;;
325;SDS011;150;52.352;14.058;2022-09-30T04:04:37;4.60;;;3.97;;
325;SDS011;150;52.352;14.058;2022-09-30T04:07:04;4.82;;;4.03;;
325;SDS011;150;52.352;14.058;2022-09-30T04:09:32;6.70;;;4.50;;
325;SDS011;150;52.352;14.058;2022-09-30T04:11:59;4.72;;;4.30;;
325;SDS011;150;52.352;14.058;2022-09-30T04:14:26;5.60;;;4.65;;
325;SDS011;150;52.352;14.058;2022-09-30T04:16:53;5.20;;;4.47;;
325;SDS011;150;52.352;14.058;2022-09-30T04:19:19;6.18;;;4.13;;
325;SDS011;150;52.352;14.058;2022-09-30T04:21:46;6.45;;;4.88;;
325;SDS011;150;52.352;14.058;2022-09-30T04:24:13;6.63;;;5.28;;
325;SDS011;150;52.352;14.058;2022-09-30T04:26:41;5.50;;;4.00;;
325;SDS011;150;52.352;14.058;2022-09-30T04:29:07;5.07;;;4.57;;
325;SDS011;150;52.352;14.058;2022-09-30T04:31:34;5.88;;;5.00;;
325;SDS011;150;52.352;14.058;2022-09-30T04:34:01;6.07;;;4.60;;
325;SDS011;150;52.352;14.058;2022-09-30T04:36:27;5.80;;;4.35;;
325;SDS011;150;52.352;14.058;2022-09-30T04:38:54;5.93;;;4.60;;
325;SDS011;150;52.352;14.058;2022-09-30T04:41:20;7.18;;;4.60;;
325;SDS011;150;52.352;14.058;2022-09-30T04:43:48;8.18;;;5.50;;
325;SDS011;150;52.352;14.058;2022-09-30T04:46:15;5.97;;;4.55;;
325;SDS011;150;52.352;14.058;2022-09-30T04:48:43;5.13;;;4.15;;
325;SDS011;150;52.352;14.058;2022-09-30T04:51:11;4.80;;;4.32;;
325;SDS011;150;52.352;14.058;2022-09-30T04:53:38;5.38;;;3.83;;
325;SDS011;150;52.352;14.058;2022-09-30T04:56:05;5.95;;;4.70;;
325;SDS011;150;52.352;14.058;2022-09-30T04:58:32;5.60;;;5.10;;
325;SDS011;150;52.352;14.058;2022-09-30T05:01:01;6.60;;;4.75;;
325;SDS011;150;52.352;14.058;2022-09-30T05:03:28;8.70;;;5.30;;
325;SDS011;150;52.352;14.058;2022-09-30T05:05:55;5.93;;;4.80;;
325;SDS011;150;52.352;14.058;2022-09-30T05:08:22;8.43;;;6.65;;
325;SDS011;150;52.352;14.058;2022-09-30T05:10:54;8.52;;;6.00;;
325;SDS011;150;52.352;14.058;2022-09-30T05:13:22;6.60;;;5.57;;
325;SDS011;150;52.352;14.058;2022-09-30T05:15:49;7.63;;;5.82;;
325;SDS011;150;52.352;14.058;2022-09-30T05:18:18;10.18;;;7.10;;
325;SDS011;150;52.352;14.058;2022-09-30T05:20:47;8.93;;;6.35;;
325;SDS011;150;52.352;14.058;2022-09-30T05:23:14;8.43;;;6.80;;
325;SDS011;150;52.352;14.058;2022-09-30T05:25:41;8.32;;;6.35;;
325;SDS011;150;52.352;14.058;2022-09-30T05:28:07;6.93;;;6.07;;
325;SDS011;150;52.352;14.058;2022-09-30T05:30:34;9.55;;;6.38;;
325;SDS011;150;52.352;14.058;2022-09-30T05:33:01;7.40;;;6.35;;
325;SDS011;150;52.352;14.058;2022-09-30T05:35:29;7.95;;;5.90;;
325;SDS011;150;52.352;14.058;2022-09-30T05:37:56;9.88;;;6.45;;
325;SDS011;150;52.352;14.058;2022-09-30T05:40:22;8.65;;;6.55;;
325;SDS011;150;52.352;14.058;2022-09-30T05:42:49;9.43;;;6.60;;
325;SDS011;150;52.352;14.058;2022-09-30T05:45:16;8.98;;;6.55;;
325;SDS011;150;52.352;14.058;2022-09-30T05:47:42;9.88;;;6.90;;
325;SDS011;150;52.352;14.058;2022-09-30T05:50:15;9.82;;;6.63;;
325;SDS011;150;52.352;14.058;2022-09-30T05:52:43;9.65;;;6.30;;
325;SDS011;150;52.352;14.058;2022-09-30T05:55:10;8.70;;;6.35;;
325;SDS011;150;52.352;14.058;2022-09-30T05:57:37;8.63;;;6.70;;
325;SDS011;150;52.352;14.058;2022-09-30T06:00:04;8.35;;;6.30;;
325;SDS011;150;52.352;14.058;2022-09-30T06:02:31;9.23;;;7.13;;
325;SDS011;150;52.352;14.058;2022-09-30T06:04:58;8.43;;;6.32;;
325;SDS011;150;52.352;14.058;2022-09-30T06:07:24;11.30;;;7.60;;
325;SDS011;150;52.352;14.058;2022-09-30T06:09:53;11.55;;;6.88;;
325;SDS011;150;52.352;14.058;2022-09-30T06:12:20;11.07;;;7.60;;
325;SDS011;150;52.352;14.058;2022-09-30T06:14:46;9.75;;;6.60;;
325;SDS011;150;52.352;14.058;2022-09-30T06:17:13;8.07;;;6.47;;
325;SDS011;150;52.352;14.058;2022-09-30T06:19:42;8.52;;;6.85;;
325;SDS011;150;52.352;14.058;2022-09-30T06:22:09;9.50;;;8.20;;
325;SDS011;150;52.352;14.058;2022-09-30T06:24:35;10.55;;;8.23;;
325;SDS011;150;52.352;14.058;2022-09-30T06:27:03;11.05;;;8.30;;
325;SDS011;150;52.352;14.058;2022-09-30T06:29:30;12.65;;;9.50;;
325;SDS011;150;52.352;14.058;2022-09-30T06:31:56;11.68;;;8.30;;
325;SDS011;150;52.352;14.058;2022-09-30T06:34:23;9.98;;;8.38;;
325;SDS011;150;52.352;14.058;2022-09-30T06:36:50;17.15;;;8.32;;
325;SDS011;150;52.352;14.058;2022-09-30T06:39:18;12.75;;;9.63;;
325;SDS011;150;52.352;14.058;2022-09-30T06:41:44;13.88;;;7.82;;
325;SDS011;150;52.352;14.058;2022-09-30T06:44:12;10.57;;;8.35;;
325;SDS011;150;52.352;14.058;2022-09-30T06:46:39;8.52;;;7.25;;
325;SDS011;150;52.352;14.058;2022-09-30T06:49:06;9.65;;;7.47;;
325;SDS011;150;52.352;14.058;2022-09-30T06:51:32;9.10;;;7.28;;
325;SDS011;150;52.352;14.058;2022-09-30T06:54:00;10.25;;;7.25;;
325;SDS011;150;52.352;14.058;2022-09-30T06:56:27;10.32;;;6.88;;
325;SDS011;150;52.352;14.058;2022-09-30T06:58:53;9.57;;;6.47;;
325;SDS011;150;52.352;14.058;2022-09-30T07:01:22;9.75;;;6.93;;
325;SDS011;150;52.352;14.058;2022-09-30T07:03:49;8.63;;;7.07;;
325;SDS011;150;52.352;14.058;2022-09-30T07:06:19;11.13;;;6.25;;
325;SDS011;150;52.352;14.058;2022-09-30T07:08:46;11.32;;;6.43;;
325;SDS011;150;52.352;14.058;2022-09-30T07:11:12;9.80;;;6.45;;
325;SDS011;150;52.352;14.058;2022-09-30T07:13:39;7.75;;;7.15;;
325;SDS011;150;52.352;14.058;2022-09-30T07:16:07;9.48;;;7.18;;
325;SDS011;150;52.352;14.058;2022-09-30T07:18:37;7.55;;;6.15;;
325;SDS011;150;52.352;14.058;2022-09-30T07:21:06;8.00;;;6.40;;
325;SDS011;150;52.352;14.058;2022-09-30T07:23:33;12.57;;;6.88;;
325;SDS011;150;52.352;14.058;2022-09-30T07:26:01;9.60;;;7.68;;
325;SDS011;150;52.352;14.058;2022-09-30T07:28:29;8.45;;;6.50;;
325;SDS011;150;52.352;14.058;2022-09-30T07:30:59;7.82;;;6.65;;
325;SDS011;150;52.352;14.058;2022-09-30T07:33:27;9.63;;;7.47;;
325;SDS011;150;52.352;14.058;2022-09-30T07:35:58;11.57;;;7.32;;
325;SDS011;150;52.352;14.058;2022-09-30T07:38:26;8.43;;;6.68;;
325;SDS011;150;52.352;14.058;2022-09-30T07:40:55;9.25;;;7.30;;
325;SDS011;150;52.352;14.058;2022-09-30T07:43:23;9.30;;;7.28;;
325;SDS011;150;52.352;14.058;2022-09-30T07:45:52;11.40;;;7.70;;
325;SDS011;150;52.352;14.058;2022-09-30T07:48:20;9.43;;;7.63;;
325;SDS011;150;52.352;14.058;2022-09-30T07:51:08;10.95;;;7.63;;
325;SDS011;150;52.352;14.058;2022-09-30T07:53:35;10.80;;;7.68;;
325;SDS011;150;52.352;14.058;2022-09-30T07:56:02;12.55;;;10.32;;
325;SDS011;150;52.352;14.058;2022-09-30T07:58:30;15.10;;;11.52;;
325;SDS011;150;52.352;14.058;2022-09-30T08:00:57;11.35;;;9.02;;
325;SDS011;150;52.352;14.058;2022-09-30T08:03:24;14.15;;;8.88;;
325;SDS011;150;52.352;14.058;2022-09-30T08:05:51;12.05;;;9.70;;
325;SDS011;150;52.352;14.058;2022-09-30T08:08:19;14.55;;;9.80;;
325;SDS011;150;52.352;14.058;2022-09-30T08:10:46;12.75;;;9.90;;
325;SDS011;150;52.352;14.058;2022-09-30T08:13:12;11.05;;;8.50;;
325;SDS011;150;52.352;14.058;2022-09-30T08:15:40;33.63;;;29.00;;
325;SDS011;150;52.352;14.058;2022-09-30T08:18:07;18.23;;;14.80;;
325;SDS011;150;52.352;14.058;2022-09-30T08:20:34;11.25;;;8.80;;
325;SDS011;150;52.352;14.058;2022-09-30T08:23:00;11.93;;;9.20;;
325;SDS011;150;52.352;14.058;2022-09-30T08:25:28;9.77;;;8.07;;
325;SDS011;150;52.352;14.058;2022-09-30T08:27:55;8.60;;;7.03;;
325;SDS011;150;52.352;14.058;2022-09-30T08:30:22;12.10;;;7.70;;
325;SDS011;150;52.352;14.058;2022-09-30T08:32:48;8.90;;;7.80;;
325;SDS011;150;52.352;14.058;2022-09-30T08:35:15;9.30;;;7.28;;
325;SDS011;150;52.352;14.058;2022-09-30T08:37:42;9.75;;;7.82;;
325;SDS011;150;52.352;14.058;2022-09-30T08:40:10;10.93;;;7.22;;
325;SDS011;150;52.352;14.058;2022-09-30T08:42:51;9.60;;;7.07;;
325;SDS011;150;52.352;14.058;2022-09-30T08:45:33;8.73;;;7.88;;
325;SDS011;150;52.352;14.058;2022-09-30T08:48:07;7.72;;;6.78;;
325;SDS011;150;52.352;14.058;2022-09-30T08:50:48;8.32;;;6.90;;
325;SDS011;150;52.352;14.058;2022-09-30T08:53:25;9.20;;;7.43;;
325;SDS011;150;52.352;14.058;2022-09-30T08:55:55;8.37;;;7.07;;
325;SDS011;150;52.352;14.058;2022-09-30T08:58:28;8.93;;;7.63;;
325;SDS011;150;52.352;14.058;2022-09-30T09:00:58;10.00;;;6.40;;
325;SDS011;150;52.352;14.058;2022-09-30T09:03:29;6.10;;;4.57;;
325;SDS011;150;52.352;14.058;2022-09-30T09:06:00;5.30;;;4.90;;
325;SDS011;150;52.352;14.058;2022-09-30T09:08:40;5.90;;;5.20;;
325;SDS011;150;52.352;14.058;2022-09-30T09:11:20;7.20;;;5.03;;
325;SDS011;150;52.352;14.058;2022-09-30T09:13:57;6.53;;;4.28;;
325;SDS011;150;52.352;14.058;2022-09-30T09:16:31;4.82;;;4.35;;
325;SDS011;150;52.352;14.058;2022-09-30T09:19:04;7.40;;;5.80;;
325;SDS011;150;52.352;14.058;2022-09-30T09:21:38;5.50;;;4.45;;
325;SDS011;150;52.352;14.058;2022-09-30T09:24:12;5.75;;;4.25;;
325;SDS011;150;52.352;14.058;2022-09-30T09:26:41;5.50;;;4.20;;
325;SDS011;150;52.352;14.058;2022-09-30T09:29:14;5.45;;;4.13;;
325;SDS011;150;52.352;14.058;2022-09-30T09:31:47;6.00;;;4.03;;
325;SDS011;150;52.352;14.058;2022-09-30T09:34:14;6.55;;;4.45;;
325;SDS011;150;52.352;14.058;2022-09-30T09:36:44;12.15;;;11.02;;
325;SDS011;150;52.352;14.058;2022-09-30T09:39:24;5.65;;;4.20;;
325;SDS011;150;52.352;14.058;2022-09-30T09:42:03;5.75;;;5.30;;
325;SDS011;150;52.352;14.058;2022-09-30T09:44:40;4.78;;;4.25;;
325;SDS011;150;52.352;14.058;2022-09-30T09:47:14;4.70;;;3.70;;
325;SDS011;150;52.352;14.058;2022-09-30T09:49:41;4.65;;;3.80;;
325;SDS011;150;52.352;14.058;2022-09-30T09:52:14;5.90;;;3.83;;
325;SDS011;150;52.352;14.058;2022-09-30T09:54:53;4.60;;;3.92;;
325;SDS011;150;52.352;14.058;2022-09-30T09:57:22;4.82;;;3.30;;
325;SDS011;150;52.352;14.058;2022-09-30T09:59:56;5.00;;;3.50;;
325;SDS011;150;52.352;14.058;2022-09-30T10:02:25;8.77;;;6.80;;
325;SDS011;150;52.352;14.058;2022-09-30T10:04:53;5.80;;;4.38;;
325;SDS011;150;52.352;14.058;2022-09-30T10:07:27;4.20;;;2.95;;
325;SDS011;150;52.352;14.058;2022-09-30T10:10:05;5.20;;;3.43;;
325;SDS011;150;52.352;14.058;2022-09-30T10:12:34;4.90;;;3.80;;
325;SDS011;150;52.352;14.058;2022-09-30T10:15:12;4.70;;;2.83;;
325;SDS011;150;52.352;14.058;2022-09-30T10:17:49;4.97;;;3.30;;
325;SDS011;150;52.352;14.058;2022-09-30T10:20:20;4.10;;;2.70;;
325;SDS011;150;52.352;14.058;2022-09-30T10:22:55;4.78;;;2.58;;
325;SDS011;150;52.352;14.058;2022-09-30T10:25:26;3.35;;;2.50;;
325;SDS011;150;52.352;14.058;2022-09-30T10:27:54;4.07;;;2.67;;
325;SDS011;150;52.352;14.058;2022-09-30T10:30:37;6.07;;;2.97;;
325;SDS011;150;52.352;14.058;2022-09-30T10:33:11;4.30;;;2.30;;
325;SDS011;150;52.352;14.058;2022-09-30T10:35:59;2.40;;;2.10;;
325;SDS011;150;52.352;14.058;2022-09-30T10:38:29;4.05;;;2.40;;
325;SDS011;150;52.352;14.058;2022-09-30T10:40:58;3.70;;;2.38;;
325;SDS011;150;52.352;14.058;2022-09-30T10:43:28;2.90;;;1.90;;
325;SDS011;150;52.352;14.058;2022-09-30T10:45:59;4.18;;;2.50;;
325;SDS011;150;52.352;14.058;2022-09-30T10:48:28;3.78;;;2.50;;
325;SDS011;150;52.352;14.058;2022-09-30T10:50:58;4.60;;;2.35;;
325;SDS011;150;52.352;14.058;2022-09-30T10:53:26;6.25;;;2.70;;
325;SDS011;150;52.352;14.058;2022-09-30T10:55:55;4.07;;;3.00;;
325;SDS011;150;52.352;14.058;2022-09-30T10:58:23;4.85;;;3.10;;
325;SDS011;150;52.352;14.058;2022-09-30T11:00:56;3.00;;;2.50;;
325;SDS011;150;52.352;14.058;2022-09-30T11:03:29;3.55;;;2.50;;
325;SDS011;150;52.352;14.058;2022-09-30T11:06:02;3.73;;;2.50;;
325;SDS011;150;52.352;14.058;2022-09-30T11:08:33;5.43;;;3.97;;
325;SDS011;150;52.352;14.058;2022-09-30T11:11:06;2.90;;;2.20;;
325;SDS011;150;52.352;14.058;2022-09-30T11:13:39;4.80;;;2.10;;
325;SDS011;150;52.352;14.058;2022-09-30T11:16:14;3.90;;;2.63;;
325;SDS011;150;52.352;14.058;2022-09-30T11:18:46;4.70;;;2.55;;
325;SDS011;150;52.352;14.058;2022-09-30T11:21:19;2.80;;;2.22;;
325;SDS011;150;52.352;14.058;2022-09-30T11:23:51;3.05;;;2.42;;
325;SDS011;150;52.352;14.058;2022-09-30T11:26:26;6.40;;;2.75;;
325;SDS011;150;52.352;14.058;2022-09-30T11:29:03;7.57;;;3.35;;
325;SDS011;150;52.352;14.058;2022-09-30T11:31:42;3.75;;;2.65;;
325;SDS011;150;52.352;14.058;2022-09-30T11:34:17;3.90;;;2.30;;
325;SDS011;150;52.352;14.058;2022-09-30T11:37:01;3.60;;;2.50;;
325;SDS011;150;52.352;14.058;2022-09-30T11:39:48;3.15;;;2.20;;
325;SDS011;150;52.352;14.058;2022-09-30T11:42:24;4.13;;;2.40;;
325;SDS011;150;52.352;14.058;2022-09-30T11:45:02;4.10;;;2.60;;
325;SDS011;150;52.352;14.058;2022-09-30T11:47:48;3.40;;;2.60;;
325;SDS011;150;52.352;14.058;2022-09-30T11:50:39;3.60;;;3.10;;
325;SDS011;150;52.352;14.058;2022-09-30T11:53:20;3.70;;;2.50;;
325;SDS011;150;52.352;14.058;2022-09-30T11:56:00;3.00;;;2.55;;
325;SDS011;150;52.352;14.058;2022-09-30T11:58:46;3.10;;;2.30;;
325;SDS011;150;52.352;14.058;2022-09-30T12:01:17;3.30;;;2.40;;
325;SDS011;150;52.352;14.058;2022-09-30T12:03:50;4.30;;;2.50;;
325;SDS011;150;52.352;14.058;2022-09-30T12:06:23;5.13;;;2.63;;
325;SDS011;150;52.352;14.058;2022-09-30T12:08:55;6.25;;;2.88;;
325;SDS011;150;52.352;14.058;2022-09-30T12:11:29;3.35;;;2.40;;
325;SDS011;150;52.352;14.058;2022-09-30T12:14:02;4.93;;;2.50;;
325;SDS011;150;52.352;14.058;2022-09-30T12:16:32;5.07;;;3.30;;
325;SDS011;150;52.352;14.058;2022-09-30T12:19:03;6.05;;;2.60;;
325;SDS011;150;52.352;14.058;2022-09-30T12:21:39;6.03;;;4.70;;
325;SDS011;150;52.352;14.058;2022-09-30T12:24:12;3.72;;;2.80;;
325;SDS011;150;52.352;14.058;2022-09-30T12:26:47;3.40;;;2.70;;
325;SDS011;150;52.352;14.058;2022-09-30T12:29:14;3.90;;;2.65;;
325;SDS011;150;52.352;14.058;2022-09-30T12:35:04;3.20;;;2.40;;
325;SDS011;150;52.352;14.058;2022-09-30T12:37:51;3.45;;;2.13;;
325;SDS011;150;52.352;14.058;2022-09-30T12:40:32;3.72;;;2.85;;
325;SDS011;150;52.352;14.058;2022-09-30T12:48:56;3.63;;;2.33;;
325;SDS011;150;52.352;14.058;2022-09-30T12:51:28;3.20;;;2.60;;
325;SDS011;150;52.352;14.058;2022-09-30T12:53:58;3.07;;;2.33;;
325;SDS011;150;52.352;14.058;2022-09-30T12:56:28;3.70;;;2.40;;
325;SDS011;150;52.352;14.058;2022-09-30T12:58:57;3.13;;;2.00;;
325;SDS011;150;52.352;14.058;2022-09-30T13:01:25;3.90;;;2.70;;
325;SDS011;150;52.352;14.058;2022-09-30T13:04:08;4.05;;;2.55;;
325;SDS011;150;52.352;14.058;2022-09-30T13:09:33;4.70;;;3.70;;
325;SDS011;150;52.352;14.058;2022-09-30T13:12:16;2.85;;;2.08;;
325;SDS011;150;52.352;14.058;2022-09-30T13:15:05;4.47;;;1.80;;
325;SDS011;150;52.352;14.058;2022-09-30T13:17:48;2.97;;;1.83;;
325;SDS011;150;52.352;14.058;2022-09-30T13:26:03;3.75;;;3.10;;
325;SDS011;150;52.352;14.058;2022-09-30T13:28:51;3.60;;;2.50;;
325;SDS011;150;52.352;14.058;2022-09-30T13:31:19;4.03;;;2.30;;
325;SDS011;150;52.352;14.058;2022-09-30T13:34:02;2.87;;;2.10;;
325;SDS011;150;52.352;14.058;2022-09-30T13:36:37;3.00;;;2.00;;
325;SDS011;150;52.352;14.058;2022-09-30T13:39:15;2.90;;;2.00;;
325;SDS011;150;52.352;14.058;2022-09-30T13:41:44;3.20;;;2.00;;
325;SDS011;150;52.352;14.058;2022-09-30T13:44:15;4.60;;;2.80;;
325;SDS011;150;52.352;14.058;2022-09-30T13:46:47;3.70;;;2.40;;
325;SDS011;150;52.352;14.058;2022-09-30T13:49:18;2.88;;;1.95;;
325;SDS011;150;52.352;14.058;2022-09-30T13:51:49;4.05;;;2.20;;
325;SDS011;150;52.352;14.058;2022-09-30T13:54:22;3.03;;;2.05;;
325;SDS011;150;52.352;14.058;2022-09-30T13:56:51;3.63;;;2.20;;
325;SDS011;150;52.352;14.058;2022-09-30T13:59:22;3.27;;;1.80;;
325;SDS011;150;52.352;14.058;2022-09-30T14:02:05;3.80;;;2.20;;
325;SDS011;150;52.352;14.058;2022-09-30T14:04:50;3.30;;;2.03;;
325;SDS011;150;52.352;14.058;2022-09-30T14:07:40;4.47;;;2.88;;
325;SDS011;150;52.352;14.058;2022-09-30T14:10:23;3.90;;;2.23;;
325;SDS011;150;52.352;14.058;2022-09-30T14:13:07;4.60;;;2.90;;
325;SDS011;150;52.352;14.058;2022-09-30T14:15:58;3.00;;;2.13;;
325;SDS011;150;52.352;14.058;2022-09-30T14:19:00;3.50;;;2.50;;
325;SDS011;150;52.352;14.058;2022-09-30T14:21:35;3.17;;;2.17;;
325;SDS011;150;52.352;14.058;2022-09-30T14:24:10;4.15;;;2.97;;
325;SDS011;150;52.352;14.058;2022-09-30T14:26:47;4.00;;;2.03;;
325;SDS011;150;52.352;14.058;2022-09-30T14:29:27;5.95;;;3.25;;
325;SDS011;150;52.352;14.058;2022-09-30T14:32:08;3.10;;;2.20;;
325;SDS011;150;52.352;14.058;2022-09-30T14:34:36;3.50;;;2.05;;
325;SDS011;150;52.352;14.058;2022-09-30T14:37:03;3.10;;;2.10;;
325;SDS011;150;52.352;14.058;2022-09-30T14:39:31;2.90;;;1.80;;
325;SDS011;150;52.352;14.058;2022-09-30T14:41:59;4.10;;;2.50;;
325;SDS011;150;52.352;14.058;2022-09-30T14:44:27;3.08;;;2.53;;
325;SDS011;150;52.352;14.058;2022-09-30T14:46:58;7.20;;;4.40;;
325;SDS011;150;52.352;14.058;2022-09-30T14:49:27;4.60;;;2.20;;
325;SDS011;150;52.352;14.058;2022-09-30T14:52:00;3.03;;;2.43;;
325;SDS011;150;52.352;14.058;2022-09-30T14:54:28;2.60;;;1.80;;
325;SDS011;150;52.352;14.058;2022-09-30T14:56:57;5.83;;;4.20;;
325;SDS011;150;52.352;14.058;2022-09-30T14:59:27;5.60;;;4.20;;
325;SDS011;150;52.352;14.058;2022-09-30T15:01:56;3.20;;;2.57;;
325;SDS011;150;52.352;14.058;2022-09-30T15:04:26;3.20;;;2.30;;
325;SDS011;150;52.352;14.058;2022-09-30T15:06:55;3.03;;;2.20;;
325;SDS011;150;52.352;14.058;2022-09-30T15:09:25;4.25;;;2.20;;
325;SDS011;150;52.352;14.058;2022-09-30T15:11:55;2.80;;;2.05;;
325;SDS011;150;52.352;14.058;2022-09-30T15:14:24;2.33;;;1.73;;
325;SDS011;150;52.352;14.058;2022-09-30T15:16:52;2.78;;;2.05;;
325;SDS011;150;52.352;14.058;2022-09-30T15:19:20;2.60;;;1.95;;
325;SDS011;150;52.352;14.058;2022-09-30T15:21:48;3.20;;;2.30;;
325;SDS011;150;52.352;14.058;2022-09-30T15:24:17;2.97;;;2.40;;
325;SDS011;150;52.352;14.058;2022-09-30T15:26:46;2.70;;;1.97;;
325;SDS011;150;52.352;14.058;2022-09-30T15:29:14;2.65;;;2.30;;
325;SDS011;150;52.352;14.058;2022-09-30T15:31:43;2.90;;;2.33;;
325;SDS011;150;52.352;14.058;2022-09-30T15:34:13;3.72;;;2.25;;
325;SDS011;150;52.352;14.058;2022-09-30T15:36:41;2.90;;;2.00;;
325;SDS011;150;52.352;14.058;2022-09-30T15:39:16;3.38;;;2.10;;
325;SDS011;150;52.352;14.058;2022-09-30T15:41:45;6.20;;;2.70;;
325;SDS011;150;52.352;14.058;2022-09-30T15:44:14;6.00;;;4.47;;
325;SDS011;150;52.352;14.058;2022-09-30T15:46:59;8.43;;;5.90;;
325;SDS011;150;52.352;14.058;2022-09-30T15:49:31;8.38;;;5.55;;
325;SDS011;150;52.352;14.058;2022-09-30T15:54:52;2.90;;;2.50;;
325;SDS011;150;52.352;14.058;2022-09-30T16:00:32;4.95;;;3.85;;
325;SDS011;150;52.352;14.058;2022-09-30T16:03:07;9.68;;;6.15;;
325;SDS011;150;52.352;14.058;2022-09-30T16:05:46;9.13;;;6.60;;
325;SDS011;150;52.352;14.058;2022-09-30T16:08:13;4.75;;;3.80;;
325;SDS011;150;52.352;14.058;2022-09-30T16:10:47;4.60;;;2.90;;
325;SDS011;150;52.352;14.058;2022-09-30T16:13:16;3.85;;;2.55;;
325;SDS011;150;52.352;14.058;2022-09-30T16:15:43;3.90;;;3.10;;
325;SDS011;150;52.352;14.058;2022-09-30T16:18:16;3.97;;;2.90;;
325;SDS011;150;52.352;14.058;2022-09-30T16:20:55;4.25;;;3.00;;
325;SDS011;150;52.352;14.058;2022-09-30T16:23:27;4.30;;;3.70;;
325;SDS011;150;52.352;14.058;2022-09-30T16:26:11;6.72;;;5.13;;
325;SDS011;150;52.352;14.058;2022-09-30T16:28:43;7.32;;;6.72;;